Aviation Digital Data Service (ADDS)

Output produced by TAFs form (0025 UTC 21 January 2018)
found at http://aviationweather.gov/adds/tafs/
 
KFMN 202331Z 2100/2124 23018G28KT P6SM VCSH BKN080 OVC100 
     TEMPO 2101/2105 5SM -SHRA OVC040 
     FM210500 25012KT P6SM VCSH OVC050 
     FM210900 27011KT 4SM -SN BR OVC020 
     FM211600 28020G30KT P6SM BKN040 
     FM212100 29034G44KT P6SM BKN060